createdAt,value
2022-12-23T00:01:22.255Z,23.02
2022-12-23T00:03:49.013Z,24.90
2022-12-23T00:06:17.273Z,18.50
2022-12-23T00:08:44.556Z,22.73
2022-12-23T00:11:19.807Z,20.75
2022-12-23T00:14:05.517Z,21.67
2022-12-23T00:16:32.341Z,17.27
2022-12-23T00:19:01.115Z,13.48
2022-12-23T00:21:27.793Z,14.77
2022-12-23T00:23:54.460Z,20.73
2022-12-23T00:26:26.236Z,22.75
2022-12-23T00:28:55.647Z,14.35
2022-12-23T00:31:22.376Z,18.25
2022-12-23T00:33:51.286Z,16.67
2022-12-23T00:36:19.304Z,15.95
2022-12-23T00:39:04.637Z,17.92
2022-12-23T00:41:49.837Z,15.88
2022-12-23T00:44:16.485Z,11.25
2022-12-23T00:46:43.185Z,22.77
2022-12-23T00:49:31.456Z,15.35
2022-12-23T00:51:58.485Z,12.55
2022-12-23T00:54:25.305Z,19.73
2022-12-23T00:56:52.051Z,23.25
2022-12-23T00:59:19.041Z,17.98
2022-12-23T01:02:04.581Z,22.80
2022-12-23T01:04:49.791Z,18.17
2022-12-23T01:07:16.516Z,13.18
2022-12-23T01:09:43.184Z,18.80
2022-12-23T01:12:09.781Z,14.82
2022-12-23T01:14:36.594Z,15.88
2022-12-23T01:17:03.496Z,13.20
2022-12-23T01:19:30.263Z,14.55
2022-12-23T01:21:56.952Z,13.75
2022-12-23T01:24:23.709Z,18.17
2022-12-23T01:26:50.366Z,15.95
2022-12-23T01:29:16.998Z,26.10
2022-12-23T01:31:43.647Z,16.67
2022-12-23T01:34:10.509Z,17.05
2022-12-23T01:36:37.557Z,18.77
2022-12-23T01:39:04.442Z,16.23
2022-12-23T01:41:51.644Z,14.85
2022-12-23T01:44:47.967Z,14.43
2022-12-23T01:47:39.205Z,19.60
2022-12-23T01:50:11.745Z,17.05
2022-12-23T01:53:15.615Z,15.77
2022-12-23T01:55:42.237Z,23.45
2022-12-23T01:58:13.328Z,15.15
2022-12-23T02:01:00.307Z,14.63
2022-12-23T02:03:42.371Z,12.90
2022-12-23T02:06:49.345Z,17.40
2022-12-23T02:09:22.951Z,14.68
2022-12-23T02:12:27.279Z,14.23
2022-12-23T02:15:18.537Z,15.23
2022-12-23T02:18:07.057Z,15.38
2022-12-23T02:21:12.149Z,12.45
2022-12-23T02:23:57.565Z,20.90
2022-12-23T02:26:36.388Z,14.00
2022-12-23T02:29:21.941Z,17.17
2022-12-23T02:32:06.998Z,17.20
2022-12-23T02:34:47.192Z,17.38
2022-12-23T02:37:24.827Z,15.30
2022-12-23T02:40:23.790Z,16.35
2022-12-23T02:42:56.868Z,15.95
2022-12-23T02:45:33.799Z,16.73
2022-12-23T02:48:05.276Z,19.60
2022-12-23T02:50:35.075Z,14.63
2022-12-23T02:53:11.866Z,16.15
2022-12-23T02:55:40.516Z,16.17
2022-12-23T02:58:11.513Z,15.88
2022-12-23T03:00:38.795Z,19.38
2022-12-23T03:03:05.774Z,20.77
2022-12-23T03:05:42.185Z,20.63
2022-12-23T03:08:16.288Z,16.77
2022-12-23T03:11:01.793Z,22.45
2022-12-23T03:13:38.542Z,22.10
2022-12-23T03:16:42.016Z,25.55
2022-12-23T03:19:24.081Z,26.88
2022-12-23T03:22:04.798Z,30.27
2022-12-23T03:24:40.814Z,25.75
2022-12-23T03:27:11.736Z,22.80
2022-12-23T03:29:57.046Z,23.83
2022-12-23T03:32:25.016Z,21.38
2022-12-23T03:34:53.421Z,19.25
2022-12-23T03:37:20.991Z,22.20
2022-12-23T03:39:53.035Z,19.98
2022-12-23T03:42:26.041Z,19.75
2022-12-23T03:45:19.626Z,18.40
2022-12-23T03:48:04.887Z,19.27
2022-12-23T03:50:31.989Z,20.65
2022-12-23T03:53:09.619Z,21.75
2022-12-23T03:55:41.500Z,16.80
2022-12-23T03:58:24.516Z,21.13
2022-12-23T04:00:59.326Z,19.25
2022-12-23T04:03:38.167Z,25.23
2022-12-23T04:06:06.155Z,19.65
2022-12-23T04:08:37.727Z,20.95
2022-12-23T04:11:04.967Z,20.38
2022-12-23T04:13:32.269Z,22.00
2022-12-23T04:15:59.792Z,20.05
2022-12-23T04:18:26.410Z,16.42
2022-12-23T04:20:53.054Z,25.15
2022-12-23T04:23:19.666Z,21.52
2022-12-23T04:25:46.328Z,23.55
2022-12-23T04:28:12.979Z,20.42
2022-12-23T04:30:39.617Z,19.77
2022-12-23T04:33:06.199Z,19.35
2022-12-23T04:35:32.952Z,20.30
2022-12-23T04:37:59.553Z,24.10
2022-12-23T04:40:26.213Z,23.27
2022-12-23T04:42:52.903Z,29.65
2022-12-23T04:45:19.570Z,26.73
2022-12-23T04:47:46.204Z,29.88
2022-12-23T04:50:16.648Z,20.60
2022-12-23T04:52:44.087Z,25.63
2022-12-23T04:55:10.991Z,25.38
2022-12-23T04:57:37.671Z,28.27
2022-12-23T05:00:05.329Z,30.40
2022-12-23T05:02:32.065Z,24.98
2022-12-23T05:04:58.812Z,29.48
2022-12-23T05:07:25.550Z,20.95
2022-12-23T05:09:52.168Z,26.38
2022-12-23T05:12:18.811Z,24.38
2022-12-23T05:14:45.416Z,16.80
2022-12-23T05:17:12.155Z,21.85
2022-12-23T05:19:38.813Z,16.00
2022-12-23T05:22:05.424Z,15.68
2022-12-23T05:24:32.079Z,15.63
2022-12-23T05:27:00.381Z,20.48
2022-12-23T05:29:27.789Z,16.48
2022-12-23T05:31:54.614Z,19.42
2022-12-23T05:34:21.688Z,20.95
2022-12-23T05:36:48.330Z,18.90
2022-12-23T05:39:15.088Z,21.85
2022-12-23T05:41:41.743Z,21.10
2022-12-23T05:44:08.426Z,22.05
2022-12-23T05:46:35.180Z,21.40
2022-12-23T05:49:01.934Z,24.17
2022-12-23T05:51:28.713Z,24.25
2022-12-23T05:53:55.368Z,28.52
2022-12-23T05:56:22.005Z,22.90
2022-12-23T05:58:48.642Z,25.42
2022-12-23T06:01:15.290Z,24.38
2022-12-23T06:03:42.035Z,24.17
2022-12-23T06:06:08.861Z,19.85
2022-12-23T06:08:35.604Z,18.15
2022-12-23T06:11:05.377Z,21.35
2022-12-23T06:13:32.171Z,17.75
2022-12-23T06:15:58.895Z,19.60
2022-12-23T06:18:25.554Z,16.67
2022-12-23T06:20:52.245Z,12.82
2022-12-23T06:23:18.981Z,12.85
2022-12-23T06:25:45.760Z,10.95
2022-12-23T06:28:12.468Z,13.18
2022-12-23T06:30:39.170Z,13.93
2022-12-23T06:33:05.821Z,15.90
2022-12-23T06:35:32.450Z,15.50
2022-12-23T06:37:59.129Z,16.35
2022-12-23T06:40:25.905Z,15.10
2022-12-23T06:42:52.614Z,16.88
2022-12-23T06:45:19.293Z,15.40
2022-12-23T06:47:46.272Z,15.75
2022-12-23T06:50:13.038Z,15.57
2022-12-23T06:52:39.695Z,14.27
2022-12-23T06:55:06.789Z,14.50
2022-12-23T06:57:33.415Z,17.05
2022-12-23T07:00:00.090Z,21.67
2022-12-23T07:02:26.944Z,20.45
2022-12-23T07:04:53.699Z,21.35
2022-12-23T07:07:20.356Z,20.50
2022-12-23T07:09:47.118Z,17.17
2022-12-23T07:12:13.781Z,23.67
2022-12-23T07:14:40.540Z,25.92
2022-12-23T07:17:07.250Z,23.88
2022-12-23T07:19:34.231Z,27.95
2022-12-23T07:22:01.808Z,31.10
2022-12-23T07:24:28.441Z,27.63
2022-12-23T07:26:56.088Z,26.80
2022-12-23T07:29:22.803Z,27.02
2022-12-23T07:31:49.667Z,25.90
2022-12-23T07:34:16.361Z,19.10
2022-12-23T07:36:43.161Z,24.55
2022-12-23T07:39:09.840Z,30.98
2022-12-23T07:41:36.476Z,22.30
2022-12-23T07:44:07.001Z,26.15
2022-12-23T07:46:33.725Z,17.05
2022-12-23T07:49:00.457Z,22.30
2022-12-23T07:51:27.104Z,21.35
2022-12-23T07:53:56.712Z,20.25
2022-12-23T07:56:23.449Z,20.90
2022-12-23T07:58:51.045Z,22.50
2022-12-23T08:01:18.606Z,19.33
2022-12-23T08:03:45.865Z,24.40
2022-12-23T08:06:15.215Z,22.95
2022-12-23T08:08:44.714Z,21.13
2022-12-23T08:11:12.714Z,26.33
2022-12-23T08:13:40.770Z,21.23
2022-12-23T08:16:07.907Z,21.58
2022-12-23T08:18:37.679Z,21.67
2022-12-23T08:21:07.609Z,25.77
2022-12-23T08:23:34.594Z,19.92
2022-12-23T08:26:04.512Z,19.30
2022-12-23T08:28:32.021Z,23.05
2022-12-23T08:31:14.301Z,22.85
2022-12-23T08:33:42.607Z,25.95
2022-12-23T08:36:17.495Z,20.42
2022-12-23T08:38:47.569Z,20.10
2022-12-23T08:41:17.942Z,24.20
2022-12-23T08:43:44.943Z,19.83
2022-12-23T08:46:12.317Z,23.30
2022-12-23T08:48:41.495Z,23.23
2022-12-23T08:51:14.406Z,22.58
2022-12-23T08:56:57.912Z,21.08
2022-12-23T08:59:24.604Z,20.75
2022-12-23T09:01:51.435Z,21.15
2022-12-23T09:04:18.172Z,21.63
2022-12-23T09:06:45.501Z,22.25
2022-12-23T09:09:14.876Z,21.92
2022-12-23T09:11:41.894Z,23.08
2022-12-23T09:14:10.384Z,21.95
2022-12-23T09:16:37.892Z,25.70
2022-12-23T09:19:04.969Z,34.83
2022-12-23T09:21:31.792Z,30.40
2022-12-23T09:23:58.465Z,33.17
2022-12-23T09:26:27.578Z,30.63
2022-12-23T09:28:55.637Z,31.08
2022-12-23T09:31:22.968Z,32.97
2022-12-23T09:33:51.824Z,35.90
2022-12-23T09:36:19.135Z,36.38
2022-12-23T09:38:45.778Z,32.80
2022-12-23T09:41:34.065Z,31.08
2022-12-23T09:44:19.541Z,34.45
2022-12-23T09:46:51.878Z,44.53
2022-12-23T09:49:21.401Z,40.78
2022-12-23T09:51:49.337Z,35.80
2022-12-23T09:54:24.634Z,39.00
2022-12-23T09:57:02.764Z,36.50
2022-12-23T09:59:44.573Z,32.42
2022-12-23T10:02:30.096Z,34.22
2022-12-23T10:05:07.083Z,32.33
2022-12-23T10:07:44.907Z,40.30
2022-12-23T10:10:40.392Z,27.92
2022-12-23T10:13:13.105Z,29.50
2022-12-23T10:15:47.393Z,33.13
2022-12-23T10:18:53.113Z,23.80
2022-12-23T10:21:47.305Z,26.70
2022-12-23T10:24:25.995Z,24.95
2022-12-23T10:26:57.839Z,22.77
2022-12-23T10:29:26.841Z,26.65
2022-12-23T10:32:15.096Z,28.23
2022-12-23T10:35:03.699Z,24.08
2022-12-23T10:37:56.381Z,24.23
2022-12-23T10:40:30.705Z,23.13
2022-12-23T10:43:16.022Z,24.05
2022-12-23T10:45:54.765Z,25.63
2022-12-23T10:48:45.583Z,24.77
2022-12-23T10:51:20.105Z,26.50
2022-12-23T10:53:48.677Z,27.52
2022-12-23T10:56:15.696Z,26.25
2022-12-23T10:58:45.300Z,26.92
2022-12-23T11:01:18.842Z,24.70
2022-12-23T11:04:03.682Z,27.25
2022-12-23T11:06:37.244Z,23.30
2022-12-23T11:09:04.749Z,27.40
2022-12-23T11:12:02.455Z,26.77
2022-12-23T11:14:41.921Z,22.80
2022-12-23T11:17:30.325Z,27.10
2022-12-23T11:20:18.699Z,25.70
2022-12-23T11:22:57.606Z,23.75
2022-12-23T11:25:30.277Z,22.85
2022-12-23T11:28:04.096Z,21.67
2022-12-23T11:30:32.589Z,30.20
2022-12-23T11:32:59.301Z,27.13
2022-12-23T11:35:31.232Z,27.05
2022-12-23T11:37:59.761Z,23.23
2022-12-23T11:40:36.309Z,25.42
2022-12-23T11:43:06.370Z,27.52
2022-12-23T11:45:38.006Z,22.33
2022-12-23T11:48:06.152Z,23.92
2022-12-23T11:50:39.585Z,20.25
2022-12-23T11:53:09.308Z,19.75
2022-12-23T11:55:36.445Z,25.58
2022-12-23T11:58:03.877Z,21.70
2022-12-23T12:00:40.294Z,24.30
2022-12-23T12:03:16.769Z,22.90
2022-12-23T12:05:53.495Z,21.75
2022-12-23T12:08:33.516Z,20.80
2022-12-23T12:11:16.596Z,23.23
2022-12-23T12:13:45.736Z,23.42
2022-12-23T12:16:51.757Z,20.00
2022-12-23T12:19:30.455Z,20.08
2022-12-23T12:22:00.736Z,25.48
2022-12-23T12:24:32.914Z,19.15
2022-12-23T12:27:08.764Z,24.08
2022-12-23T12:29:54.156Z,24.40
2022-12-23T12:32:52.948Z,26.20
2022-12-23T12:35:25.958Z,27.30
2022-12-23T12:37:57.553Z,21.08
2022-12-23T12:40:41.440Z,28.80
2022-12-23T12:43:28.292Z,25.05
2022-12-23T12:45:57.923Z,28.52
2022-12-23T12:48:43.165Z,25.45
2022-12-23T12:51:21.620Z,23.83
2022-12-23T12:54:02.876Z,20.75
2022-12-23T12:56:47.145Z,23.70
2022-12-23T12:59:25.871Z,26.98
2022-12-23T13:02:14.309Z,24.20
2022-12-23T13:05:09.238Z,21.92
2022-12-23T13:07:48.001Z,23.75
2022-12-23T13:10:34.372Z,23.23
2022-12-23T13:13:22.636Z,23.42
2022-12-23T13:16:17.315Z,20.77
2022-12-23T13:18:54.668Z,23.65
2022-12-23T13:21:29.678Z,33.08
2022-12-23T13:24:14.618Z,26.38
2022-12-23T13:27:00.519Z,25.90
2022-12-23T13:30:03.265Z,25.00
2022-12-23T13:32:56.263Z,22.67
2022-12-23T13:35:53.500Z,24.52
2022-12-23T13:38:48.115Z,24.63
2022-12-23T13:41:33.717Z,20.52
2022-12-23T13:44:01.480Z,21.27
2022-12-23T13:46:51.336Z,21.98
2022-12-23T13:49:41.566Z,23.30
2022-12-23T13:52:48.270Z,16.92
2022-12-23T13:55:38.497Z,24.27
2022-12-23T13:58:17.250Z,20.50
2022-12-23T14:00:44.171Z,19.20
2022-12-23T14:03:12.703Z,14.90
2022-12-23T14:05:50.494Z,18.13
2022-12-23T14:08:21.824Z,21.88
2022-12-23T14:10:57.656Z,16.38
2022-12-23T14:13:28.356Z,17.50
2022-12-23T14:16:21.547Z,16.83
2022-12-23T14:18:54.676Z,16.48
2022-12-23T14:21:40.280Z,19.00
2022-12-23T14:24:06.993Z,17.08
2022-12-23T14:26:40.540Z,16.83
2022-12-23T14:29:31.347Z,17.08
2022-12-23T14:31:58.718Z,16.63
2022-12-23T14:34:28.736Z,16.85
2022-12-23T14:37:14.162Z,22.52
2022-12-23T14:39:41.138Z,27.30
2022-12-23T14:42:16.556Z,30.33
2022-12-23T14:44:47.027Z,23.55
2022-12-23T14:47:36.380Z,24.75
2022-12-23T14:50:42.642Z,22.08
2022-12-23T14:53:25.412Z,21.17
2022-12-23T14:56:19.592Z,17.85
2022-12-23T14:58:46.230Z,20.05
2022-12-23T15:01:19.346Z,21.98
2022-12-23T15:03:54.610Z,19.55
2022-12-23T15:06:35.094Z,18.08
2022-12-23T15:09:02.357Z,16.20
2022-12-23T15:11:30.740Z,18.90
2022-12-23T15:14:00.115Z,17.17
2022-12-23T15:16:31.491Z,14.35
2022-12-23T15:19:02.297Z,20.20
2022-12-23T15:21:32.524Z,17.60
2022-12-23T15:23:59.389Z,16.20
2022-12-23T15:26:29.170Z,17.33
2022-12-23T15:28:56.323Z,20.02
2022-12-23T15:31:33.705Z,20.08
2022-12-23T15:34:08.933Z,20.27
2022-12-23T15:36:42.411Z,19.52
2022-12-23T15:39:15.019Z,15.27
2022-12-23T15:41:43.807Z,17.95
2022-12-23T15:44:15.470Z,15.05
2022-12-23T15:46:42.296Z,13.55
2022-12-23T15:49:11.916Z,17.83
2022-12-23T15:52:06.775Z,10.02
2022-12-23T15:54:33.258Z,11.88
2022-12-23T15:57:01.928Z,14.57
2022-12-23T15:59:39.782Z,12.45
2022-12-23T16:02:49.546Z,12.85
2022-12-23T16:05:05.243Z,16.25
2022-12-23T16:07:39.000Z,20.85
2022-12-23T16:10:15.436Z,10.38
2022-12-23T16:12:42.536Z,13.38
2022-12-23T16:15:25.115Z,10.02
2022-12-23T16:17:53.986Z,15.23
2022-12-23T16:20:27.028Z,14.63
2022-12-23T16:22:56.896Z,13.00
2022-12-23T16:25:27.633Z,13.77
2022-12-23T16:28:08.912Z,13.90
2022-12-23T16:30:37.888Z,12.30
2022-12-23T16:33:07.759Z,10.10
2022-12-23T16:35:40.168Z,13.13
2022-12-23T16:38:14.982Z,12.32
2022-12-23T16:40:42.262Z,11.85
2022-12-23T16:43:09.723Z,14.45
2022-12-23T16:45:36.990Z,11.20
2022-12-23T16:48:16.176Z,10.32
2022-12-23T16:50:43.081Z,14.13
2022-12-23T16:53:12.583Z,15.73
2022-12-23T16:55:42.941Z,14.18
2022-12-23T16:58:15.250Z,12.77
2022-12-23T17:00:42.711Z,16.77
2022-12-23T17:03:15.894Z,15.85
2022-12-23T17:05:42.743Z,14.82
2022-12-23T17:08:10.380Z,16.60
2022-12-23T17:10:38.378Z,16.02
2022-12-23T17:13:05.071Z,14.63
2022-12-23T17:15:32.194Z,12.07
2022-12-23T17:17:58.919Z,14.60
2022-12-23T17:20:25.607Z,15.07
2022-12-23T17:22:54.501Z,16.25
2022-12-23T17:25:26.332Z,15.50
2022-12-23T17:27:55.480Z,15.60
2022-12-23T17:30:24.191Z,16.17
2022-12-23T17:33:00.306Z,15.10
2022-12-23T17:35:26.980Z,14.48
2022-12-23T17:37:53.598Z,15.15
2022-12-23T17:40:20.448Z,15.27
2022-12-23T17:42:47.495Z,3.13
2022-12-23T17:45:26.824Z,14.88
2022-12-23T17:47:53.647Z,16.35
2022-12-23T17:50:20.498Z,20.33
2022-12-23T17:52:47.214Z,17.05
2022-12-23T17:55:23.305Z,9.73
2022-12-23T17:57:50.147Z,6.97
2022-12-23T18:00:25.431Z,7.07
2022-12-23T18:02:56.355Z,9.70
2022-12-23T18:05:26.832Z,9.18
2022-12-23T18:07:54.788Z,10.73
2022-12-23T18:10:28.177Z,10.57
2022-12-23T18:12:57.547Z,12.48
2022-12-23T18:15:27.712Z,17.35
2022-12-23T18:17:54.486Z,13.82
2022-12-23T18:20:23.511Z,14.82
2022-12-23T18:22:52.675Z,19.20
2022-12-23T18:25:26.927Z,10.82
2022-12-23T18:27:54.107Z,24.63
2022-12-23T18:30:21.745Z,13.90
2022-12-23T18:32:49.113Z,5.88
2022-12-23T18:35:27.055Z,16.40
2022-12-23T18:37:54.066Z,16.98
2022-12-23T18:40:20.871Z,11.18
2022-12-23T18:42:47.785Z,12.95
2022-12-23T18:45:25.263Z,10.15
2022-12-23T18:47:52.075Z,16.15
2022-12-23T18:50:18.852Z,15.25
2022-12-23T18:52:46.765Z,20.75
2022-12-23T18:55:13.668Z,18.20
2022-12-23T18:57:40.995Z,20.75
2022-12-23T19:00:13.481Z,10.60
2022-12-23T19:02:40.408Z,16.40
2022-12-23T19:05:08.106Z,5.20
2022-12-23T19:07:34.926Z,8.38
2022-12-23T19:10:02.483Z,8.13
2022-12-23T19:12:29.094Z,18.65
2022-12-23T19:14:55.775Z,13.60
2022-12-23T19:17:22.411Z,12.27
2022-12-23T19:19:49.088Z,18.02
2022-12-23T19:22:15.711Z,14.13
2022-12-23T19:25:03.869Z,24.85
2022-12-23T19:27:30.149Z,22.30
2022-12-23T19:29:56.983Z,15.63
2022-12-23T19:32:23.904Z,16.63
2022-12-23T19:34:50.606Z,23.95
2022-12-23T19:37:17.399Z,26.15
2022-12-23T19:39:44.034Z,20.75
2022-12-23T19:42:11.229Z,14.05
2022-12-23T19:44:37.847Z,18.85
2022-12-23T19:47:04.964Z,21.73
2022-12-23T19:49:31.730Z,21.92
2022-12-23T19:51:58.411Z,12.57
2022-12-23T19:54:25.000Z,19.00
2022-12-23T19:56:51.779Z,18.23
2022-12-23T19:59:20.419Z,15.30
2022-12-23T20:01:47.294Z,14.40
2022-12-23T20:04:15.082Z,10.80
2022-12-23T20:06:41.955Z,15.55
2022-12-23T20:09:10.580Z,15.52
2022-12-23T20:11:40.742Z,28.50
2022-12-23T20:14:07.859Z,20.45
2022-12-23T20:16:36.434Z,30.10
2022-12-23T20:19:05.204Z,30.00
2022-12-23T20:21:32.099Z,21.15
2022-12-23T20:23:59.149Z,22.70
2022-12-23T20:26:27.221Z,20.33
2022-12-23T20:28:55.893Z,14.68
2022-12-23T20:31:25.430Z,13.60
2022-12-23T20:33:57.123Z,28.35
2022-12-23T20:36:26.602Z,27.58
2022-12-23T20:38:53.465Z,26.20
2022-12-23T20:41:23.077Z,28.65
2022-12-23T20:44:23.516Z,25.63
2022-12-23T20:46:36.689Z,19.33
2022-12-23T20:49:04.711Z,23.88
2022-12-23T20:51:31.676Z,27.42
2022-12-23T20:54:01.335Z,14.40
2022-12-23T20:56:30.298Z,24.38
2022-12-23T20:59:02.741Z,30.55
2022-12-23T21:01:36.623Z,24.40
2022-12-23T21:04:11.797Z,14.52
2022-12-23T21:06:39.055Z,13.60
2022-12-23T21:09:07.170Z,21.92
2022-12-23T21:11:36.244Z,23.80
2022-12-23T21:14:06.862Z,21.35
2022-12-23T21:16:34.986Z,26.35
2022-12-23T21:19:01.934Z,28.85
2022-12-23T21:21:28.984Z,23.58
2022-12-23T21:23:57.152Z,26.17
2022-12-23T21:26:26.260Z,26.13
2022-12-23T21:28:55.077Z,22.75
2022-12-23T21:31:23.833Z,26.05
2022-12-23T21:33:51.467Z,24.08
2022-12-23T21:36:23.753Z,18.45
2022-12-23T21:38:51.125Z,15.38
2022-12-23T21:41:20.080Z,18.08
2022-12-23T21:43:47.145Z,24.80
2022-12-23T21:46:16.013Z,13.70
2022-12-23T21:48:43.344Z,23.27
2022-12-23T21:51:09.950Z,17.00
2022-12-23T21:53:37.032Z,19.55
2022-12-23T21:56:05.503Z,21.50
2022-12-23T21:58:32.697Z,16.92
2022-12-23T22:00:59.912Z,13.77
2022-12-23T22:03:27.330Z,16.10
2022-12-23T22:05:54.194Z,17.83
2022-12-23T22:08:20.968Z,25.33
2022-12-23T22:10:47.777Z,14.18
2022-12-23T22:13:15.057Z,14.05
2022-12-23T22:15:42.709Z,9.75
2022-12-23T22:18:09.730Z,14.50
2022-12-23T22:20:44.279Z,24.77
2022-12-23T22:23:12.798Z,21.38
2022-12-23T22:25:39.518Z,17.73
2022-12-23T22:28:06.247Z,11.07
2022-12-23T22:30:32.943Z,23.15
2022-12-23T22:33:02.528Z,27.92
2022-12-23T22:35:30.017Z,22.33
2022-12-23T22:37:58.008Z,10.15
2022-12-23T22:40:24.695Z,31.00
2022-12-23T22:42:51.427Z,30.00
2022-12-23T22:45:18.185Z,17.25
2022-12-23T22:47:44.948Z,25.45
2022-12-23T22:50:11.856Z,18.27
2022-12-23T22:52:38.890Z,28.23
2022-12-23T22:55:06.523Z,24.55
2022-12-23T22:57:33.215Z,22.33
2022-12-23T23:00:00.770Z,12.63
2022-12-23T23:02:30.220Z,11.10
2022-12-23T23:04:56.954Z,16.73
2022-12-23T23:07:23.649Z,10.75
2022-12-23T23:09:50.295Z,13.60
2022-12-23T23:12:16.994Z,17.10
2022-12-23T23:14:52.880Z,18.13
2022-12-23T23:17:24.879Z,21.38
2022-12-23T23:19:52.221Z,11.90
2022-12-23T23:22:20.315Z,18.33
2022-12-23T23:24:46.971Z,17.08
2022-12-23T23:27:14.206Z,24.02
2022-12-23T23:29:41.246Z,18.65
2022-12-23T23:32:08.679Z,20.92
2022-12-23T23:34:35.466Z,36.25
2022-12-23T23:37:02.262Z,23.73
2022-12-23T23:39:29.046Z,30.60
2022-12-23T23:41:55.765Z,21.30
2022-12-23T23:44:22.496Z,27.30
2022-12-23T23:46:49.206Z,24.00
2022-12-23T23:49:15.886Z,31.80
2022-12-23T23:51:42.675Z,29.77
2022-12-23T23:54:09.342Z,26.73
2022-12-23T23:56:38.578Z,34.50
2022-12-23T23:59:05.550Z,17.02
